KTSP/TSP METAR and TAF weather

Enter ICAO airport designator
Station Type Date Time Source
KTSP METAR 2020/07/02 21:15 UTC NOAA

KTSP 022115Z AUTO 32013G18KT 9SM CLR 30/00 A3001 RMK AO2


Station Type Date Time Source
KTSP Decoded METAR 2020/07/02 21:15 UTC NOAA

Station name not available
Jul 02, 2020 - 05:15 PM EDT / 2020.07.02 2115 UTC
Wind: from the NW (320 degrees) at 15 MPH (13 KT) gusting to 21 MPH (18 KT):0
Visibility: 9 mile(s):0
Sky conditions: clear
Temperature: 86 F (30 C)
Dew Point: 32 F (0 C)
Relative Humidity: 14%
Pressure (altimeter): 30.01 in. Hg (1016 hPa)
ob: KTSP 022115Z AUTO 32013G18KT 9SM CLR 30/00 A3001 RMK AO2
cycle: 21

Station Type Date Time Source
KTSP TAF UTC NOAA

Error!

Example: see airport list